Flight Track Log - Related Links

Times and Time Zones

All times are in EDT time to prevent confusion due to time zone crossing. See the CSZ9902 flight status page for this flight to view local times or setup timezone preferences in your user account.

Time Position Orientation Groundspeed Altitude Reporting Facility
EDT Latitude Longitude Course Direction KTS MPH feet Rate Location/Type
Sat 09:22:00 AM 18.6511 109.7529 43° Northeast  Level Estimated
Sat 09:23:00 AM 18.7207 109.8212 43° Northeast  Level Estimated
Sat 09:24:00 AM 18.7903 109.8896 43° Northeast  Level Estimated
Sat 09:25:00 AM 18.8598 109.9580 43° Northeast  Level Estimated
Sat 09:26:00 AM 18.9293 110.0265 43° Northeast  Level Estimated
Sat 09:27:00 AM 18.9988 110.0950 43° Northeast  Level Estimated
Sat 09:28:00 AM 19.0682 110.1636 43° Northeast  Level Estimated
Sat 09:29:00 AM 19.1377 110.2322 43° Northeast  Level Estimated
Sat 09:30:00 AM 19.2071 110.3009 43° Northeast  Level Estimated
Sat 09:31:00 AM 19.2764 110.3696 43° Northeast  Level Estimated
Sat 09:32:00 AM 19.3458 110.4384 43° Northeast  Level Estimated
Sat 09:33:00 AM 19.4151 110.5073 43° Northeast  Level Estimated
Sat 09:34:00 AM 19.4844 110.5762 43° Northeast  Level Estimated
Sat 09:35:00 AM 19.5537 110.6452 43° Northeast  Level Estimated
Sat 09:36:00 AM 19.6229 110.7143 43° Northeast  Level Estimated
Sat 09:37:00 AM 19.6922 110.7834 43° Northeast  Level Estimated
Sat 09:38:00 AM 19.7614 110.8526 43° Northeast  Level Estimated
Sat 09:39:00 AM 19.8305 110.9218 43° Northeast  Level Estimated
Sat 09:40:00 AM 19.8997 110.9911 43° Northeast  Level Estimated
Sat 09:41:00 AM 19.9688 111.0604 43° Northeast  Level Estimated
Sat 09:42:00 AM 20.0379 111.1298 43° Northeast  Level Estimated
Sat 09:43:00 AM 20.1069 111.1993 43° Northeast  Level Estimated
Sat 09:44:00 AM 20.1759 111.2688 43° Northeast  Level Estimated
Sat 09:45:00 AM 20.2449 111.3384 43° Northeast  Level Estimated
Sat 09:46:00 AM 20.3139 111.4081 43° Northeast  Level Estimated
Sat 09:47:00 AM 20.3829 111.4778 43° Northeast  Level Estimated
Sat 09:48:00 AM 20.4518 111.5476 43° Northeast  Level Estimated
Sat 09:49:00 AM 20.5207 111.6174 44° Northeast  Level Estimated
Sat 09:50:00 AM 20.5896 111.6873 44° Northeast  Level Estimated
Sat 09:51:00 AM 20.6584 111.7573 44° Northeast  Level Estimated
Sat 09:52:00 AM 20.7272 111.8273 44° Northeast  Level Estimated
Sat 09:53:00 AM 20.7960 111.8974 44° Northeast  Level Estimated
Sat 09:54:00 AM 20.8647 111.9676 44° Northeast  Level Estimated
Sat 09:55:00 AM 20.9335 112.0378 44° Northeast  Level Estimated
Sat 09:56:00 AM 21.0021 112.1081 44° Northeast  Level Estimated
Sat 09:57:00 AM 21.0708 112.1784 44° Northeast  Level Estimated
Sat 09:58:00 AM 21.1395 112.2488 44° Northeast  Level Estimated
Sat 09:59:00 AM 21.2081 112.3193 44° Northeast  Level Estimated
Sat 10:00:00 AM 21.2766 112.3899 44° Northeast  Level Estimated
Sat 10:01:00 AM 21.3452 112.4605 44° Northeast  Level Estimated
Sat 10:02:00 AM 21.4137 112.5312 44° Northeast  Level Estimated
Sat 10:03:00 AM 21.4822 112.6019 44° Northeast  Level Estimated
Sat 10:04:00 AM 21.5507 112.6727 44° Northeast  Level Estimated
Sat 10:05:00 AM 21.6191 112.7436 44° Northeast  Level Estimated
Sat 10:06:00 AM 21.6875 112.8145 44° Northeast  Level Estimated
Sat 10:07:00 AM 21.7559 112.8855 44° Northeast  Level Estimated
Sat 10:08:00 AM 21.8242 112.9566 44° Northeast  Level Estimated
Sat 10:09:00 AM 21.8925 113.0278 44° Northeast  Level Estimated
Sat 10:10:00 AM 21.9608 113.0990 44° Northeast  Level Estimated
Sat 10:11:00 AM 22.0291 113.1703 44° Northeast  Level Estimated
Sat 10:12:00 AM 22.0973 113.2416 44° Northeast  Level Estimated
Sat 10:13:00 AM 22.1655 113.3130 44° Northeast  Level Estimated
Sat 10:14:00 AM 22.2336 113.3845 44° Northeast  Level Estimated
Sat 10:15:00 AM 22.3017 113.4561 44° Northeast  Level Estimated
Sat 10:16:00 AM 22.3698 113.5277 44° Northeast  Level Estimated
Sat 10:17:00 AM 22.4379 113.5994 44° Northeast  Level Estimated
Sat 10:18:00 AM 22.5059 113.6712 44° Northeast  Level Estimated
Sat 10:19:00 AM 22.5739 113.7430 44° Northeast  Level Estimated
Sat 10:20:00 AM 22.6395 113.8124 44° Northeast  Level Estimated
Sat 10:21:00 AM 22.6395 113.8124 25° Northeast  Level Estimated
Sat 10:22:00 AM 22.6395 113.8124 25° Northeast  Level Estimated
Sat 10:23:00 AM 22.6395 113.8124 25° Northeast  Level Estimated
Sat 10:24:00 AM 22.6395 113.8124 25° Northeast  Level Estimated
Sat 10:25:00 AM 22.6395 113.8124 25° Northeast  Level Estimated
Sat 10:26:00 AM 22.6395 113.8124 25° Northeast  Level Estimated
Sat 10:27:00 AM 22.6395 113.8124 25° Northeast  Level Estimated
Sat 10:28:00 AM 22.6395 113.8124 25° Northeast  Level Estimated
Sat 10:29:00 AM 22.6395 113.8124 25° Northeast  Level Estimated
Sat 10:30:00 AM 22.6395 113.8124 25° Northeast  Level Estimated
Sat 10:31:00 AM 22.6395 113.8124 25° Northeast  Level Estimated
Sat 10:32:00 AM 22.6395 113.8124 25° Northeast  Level Estimated
Sat 10:33:00 AM 22.6395 113.8124 25° Northeast  Level Estimated
Sat 10:34:00 AM 22.6395 113.8124 25° Northeast  Level Estimated
Sat 10:35:00 AM 22.6395 113.8124 25° Northeast  Level Estimated
Sat 10:36:00 AM 22.6395 113.8124 25° Northeast  Level Estimated

Login

Don't have an account? Register now (free) for customized features, flight alerts, and more!